createdAt,value
2019-03-29T00:02:08.555Z,16.20
2019-03-29T00:07:04.483Z,13.47
2019-03-29T00:12:00.397Z,11.33
2019-03-29T00:16:57.181Z,13.07
2019-03-29T00:21:53.095Z,18.60
2019-03-29T00:26:49.001Z,9.53
2019-03-29T00:31:45.024Z,11.13
2019-03-29T00:36:40.986Z,11.83
2019-03-29T00:41:36.899Z,13.37
2019-03-29T00:46:32.821Z,14.07
2019-03-29T00:51:28.761Z,10.50
2019-03-29T00:56:24.701Z,14.47
2019-03-29T01:01:20.638Z,11.53
2019-03-29T01:06:16.548Z,13.07
2019-03-29T01:11:12.505Z,16.27
2019-03-29T01:16:08.387Z,12.30
2019-03-29T01:21:04.315Z,15.20
2019-03-29T01:26:00.959Z,15.30
2019-03-29T01:30:57.059Z,23.50
2019-03-29T01:35:53.081Z,13.57
2019-03-29T01:40:48.987Z,13.53
2019-03-29T01:45:45.321Z,14.03
2019-03-29T01:50:42.017Z,22.30
2019-03-29T01:55:38.034Z,14.97
2019-03-29T02:00:34.325Z,19.70
2019-03-29T02:05:30.233Z,14.87
2019-03-29T02:10:26.283Z,22.73
2019-03-29T02:15:22.204Z,22.07
2019-03-29T02:20:18.390Z,18.10
2019-03-29T02:25:14.299Z,19.50
2019-03-29T02:30:10.260Z,16.73
2019-03-29T02:35:07.401Z,19.13
2019-03-29T02:40:04.706Z,17.90
2019-03-29T02:45:00.700Z,20.70
2019-03-29T02:49:56.624Z,25.17
2019-03-29T02:54:52.574Z,21.50
2019-03-29T02:59:48.497Z,19.20
2019-03-29T03:04:44.403Z,19.30
2019-03-29T03:09:40.313Z,16.73
2019-03-29T03:14:36.223Z,23.83
2019-03-29T03:19:32.248Z,19.77
2019-03-29T03:24:28.803Z,19.03
2019-03-29T03:29:24.729Z,20.10
2019-03-29T03:34:20.657Z,18.37
2019-03-29T03:39:30.500Z,23.73
2019-03-29T03:44:14.431Z,21.63
2019-03-29T03:49:10.450Z,20.73
2019-03-29T03:54:11.805Z,21.47
2019-03-29T03:59:08.196Z,16.37
2019-03-29T04:04:04.314Z,22.13
2019-03-29T04:09:00.325Z,23.23
2019-03-29T04:13:56.241Z,18.27
2019-03-29T04:18:52.171Z,20.30
2019-03-29T04:23:51.504Z,18.00
2019-03-29T04:29:03.356Z,27.00
2019-03-29T04:33:45.415Z,25.23
2019-03-29T04:38:41.344Z,26.80
2019-03-29T04:43:37.355Z,23.67
2019-03-29T04:48:33.417Z,19.90
2019-03-29T04:53:29.318Z,19.97
2019-03-29T04:58:25.258Z,22.17
2019-03-29T05:03:21.175Z,20.00
2019-03-29T05:08:17.080Z,26.07
2019-03-29T05:13:13.087Z,23.63
2019-03-29T05:18:09.003Z,21.40
2019-03-29T05:23:04.960Z,20.33
2019-03-29T05:28:00.870Z,27.57
2019-03-29T05:32:56.805Z,23.70
2019-03-29T05:37:52.714Z,19.63
2019-03-29T05:42:48.630Z,21.67
2019-03-29T05:47:44.545Z,16.10
2019-03-29T05:52:40.456Z,19.40
2019-03-29T05:57:36.422Z,16.07
2019-03-29T06:02:32.312Z,20.70
2019-03-29T06:07:28.223Z,15.43
2019-03-29T06:12:24.145Z,14.17
2019-03-29T06:17:20.055Z,16.37
2019-03-29T06:22:15.970Z,19.33
2019-03-29T06:27:11.883Z,19.80
2019-03-29T06:32:07.798Z,15.83
2019-03-29T06:37:03.831Z,13.13
2019-03-29T06:41:59.732Z,13.20
2019-03-29T06:46:55.648Z,13.27
2019-03-29T06:51:51.564Z,12.10
2019-03-29T06:56:48.449Z,14.57
2019-03-29T07:01:46.446Z,20.57
2019-03-29T07:06:42.200Z,21.20
2019-03-29T07:11:39.762Z,16.37
2019-03-29T07:16:35.919Z,13.20
2019-03-29T07:21:31.833Z,18.03
2019-03-29T07:26:27.754Z,14.47
2019-03-29T07:31:23.671Z,14.93
2019-03-29T07:36:19.587Z,13.53
2019-03-29T07:41:15.542Z,15.77
2019-03-29T07:46:11.454Z,17.87
2019-03-29T07:51:07.344Z,15.00
2019-03-29T07:56:03.381Z,13.73
2019-03-29T08:00:59.295Z,13.70
2019-03-29T08:05:55.210Z,17.87
2019-03-29T08:10:53.791Z,18.80
2019-03-29T08:15:48.946Z,13.20
2019-03-29T08:20:44.959Z,15.70
2019-03-29T08:25:40.971Z,12.67
2019-03-29T08:30:36.942Z,12.70
2019-03-29T08:35:32.850Z,13.53
2019-03-29T08:40:28.766Z,15.40
2019-03-29T08:45:24.691Z,16.50
2019-03-29T08:50:20.607Z,12.50
2019-03-29T08:55:17.723Z,18.43
2019-03-29T09:00:17.602Z,13.17
2019-03-29T09:05:13.515Z,13.83
2019-03-29T09:10:26.108Z,18.37
2019-03-29T09:15:22.118Z,14.73
2019-03-29T09:20:18.137Z,23.33
2019-03-29T09:25:14.046Z,14.77
2019-03-29T09:30:10.059Z,14.70
2019-03-29T09:35:06.081Z,16.20
2019-03-29T09:40:03.094Z,15.47
2019-03-29T09:44:59.007Z,13.90
2019-03-29T09:49:54.919Z,12.83
2019-03-29T09:54:53.987Z,15.63
2019-03-29T09:59:49.219Z,12.93
2019-03-29T10:04:45.126Z,9.57
2019-03-29T10:09:41.039Z,13.70
2019-03-29T10:14:36.956Z,12.57
2019-03-29T10:19:32.908Z,16.20
2019-03-29T10:24:29.538Z,15.60
2019-03-29T10:29:25.502Z,19.20
2019-03-29T10:34:21.425Z,14.73
2019-03-29T10:39:17.354Z,28.27
2019-03-29T10:44:13.258Z,17.70
2019-03-29T10:49:09.176Z,14.53
2019-03-29T10:54:08.530Z,15.70
2019-03-29T10:59:04.447Z,17.10
2019-03-29T11:04:00.370Z,15.13
2019-03-29T11:08:56.287Z,24.87
2019-03-29T11:13:52.195Z,16.73
2019-03-29T11:18:48.125Z,18.50
2019-03-29T11:23:44.040Z,17.17
2019-03-29T11:28:39.923Z,15.63
2019-03-29T11:33:35.830Z,17.40
2019-03-29T11:38:31.737Z,20.47
2019-03-29T11:43:27.661Z,14.80
2019-03-29T11:48:23.562Z,12.77
2019-03-29T11:53:19.473Z,13.07
2019-03-29T11:58:15.460Z,18.27
2019-03-29T12:03:11.471Z,16.50
2019-03-29T12:08:07.483Z,17.37
2019-03-29T12:13:04.204Z,15.10
2019-03-29T12:18:00.141Z,18.60
2019-03-29T12:22:56.038Z,17.50
2019-03-29T12:27:52.040Z,13.57
2019-03-29T12:32:47.952Z,19.37
2019-03-29T12:37:44.015Z,19.70
2019-03-29T12:42:39.955Z,17.07
2019-03-29T12:47:38.718Z,14.60
2019-03-29T12:52:34.621Z,20.57
2019-03-29T12:57:30.564Z,16.53
2019-03-29T13:02:26.579Z,14.57
2019-03-29T13:07:22.491Z,19.07
2019-03-29T13:12:18.535Z,19.20
2019-03-29T13:17:14.470Z,18.80
2019-03-29T13:22:11.023Z,18.47
2019-03-29T13:32:27.769Z,17.50
2019-03-29T13:37:23.683Z,18.40
2019-03-29T13:42:19.635Z,19.03
2019-03-29T13:47:17.977Z,14.93
2019-03-29T13:52:13.373Z,24.37
2019-03-29T13:57:09.315Z,21.00
2019-03-29T14:02:05.222Z,22.13
2019-03-29T14:07:01.132Z,20.10
2019-03-29T14:11:58.106Z,16.80
2019-03-29T14:16:54.019Z,18.80
2019-03-29T14:21:49.982Z,16.07
2019-03-29T14:26:46.924Z,18.07
2019-03-29T14:31:43.819Z,16.17
2019-03-29T14:36:40.542Z,16.90
2019-03-29T14:41:38.207Z,16.30
2019-03-29T14:46:34.729Z,12.00
2019-03-29T14:51:31.530Z,15.57
2019-03-29T14:56:30.211Z,14.50
2019-03-29T15:01:28.729Z,15.73
2019-03-29T15:06:29.499Z,17.03
2019-03-29T15:11:26.158Z,12.43
2019-03-29T15:16:23.011Z,13.47
2019-03-29T15:21:21.161Z,12.57
2019-03-29T15:26:23.312Z,12.60
2019-03-29T15:31:20.346Z,12.67
2019-03-29T15:36:17.634Z,19.43
2019-03-29T15:41:13.734Z,14.17
2019-03-29T15:46:09.657Z,11.43
2019-03-29T15:51:05.564Z,12.50
2019-03-29T15:56:01.507Z,10.30
2019-03-29T16:00:58.088Z,13.20
2019-03-29T16:05:54.105Z,18.23
2019-03-29T16:10:50.015Z,21.43
2019-03-29T16:15:45.979Z,12.90
2019-03-29T16:20:41.900Z,15.47
2019-03-29T16:25:37.811Z,13.37
2019-03-29T16:30:33.826Z,13.90
2019-03-29T16:35:29.826Z,12.70
2019-03-29T16:40:25.739Z,13.30
2019-03-29T16:45:21.651Z,12.23
2019-03-29T16:50:17.564Z,15.43
2019-03-29T16:55:14.377Z,15.43
2019-03-29T17:00:12.528Z,10.87
2019-03-29T17:05:09.019Z,11.93
2019-03-29T17:10:05.834Z,16.80
2019-03-29T17:15:02.342Z,17.23
2019-03-29T17:19:58.364Z,14.47
2019-03-29T17:24:57.270Z,13.00
2019-03-29T17:29:52.727Z,14.27
2019-03-29T17:34:48.639Z,13.43
2019-03-29T17:39:44.554Z,13.80
2019-03-29T17:44:40.463Z,14.80
2019-03-29T17:49:36.376Z,13.17
2019-03-29T17:54:36.133Z,13.10
2019-03-29T17:59:33.051Z,11.60
2019-03-29T18:04:28.967Z,17.93
2019-03-29T18:09:24.883Z,16.03
2019-03-29T18:14:20.801Z,16.60
2019-03-29T18:19:16.710Z,21.63
2019-03-29T18:24:12.636Z,16.70
2019-03-29T18:29:08.555Z,16.60
2019-03-29T18:34:04.570Z,18.63
2019-03-29T18:39:00.590Z,22.67
2019-03-29T18:43:56.524Z,17.57
2019-03-29T18:48:52.407Z,21.80
2019-03-29T18:53:48.330Z,17.00
2019-03-29T18:58:44.274Z,22.13
2019-03-29T19:03:40.292Z,20.40
2019-03-29T19:08:36.207Z,23.03
2019-03-29T19:13:32.125Z,27.47
2019-03-29T19:18:28.308Z,21.23
2019-03-29T19:23:24.218Z,17.07
2019-03-29T19:28:20.230Z,20.00
2019-03-29T19:33:16.145Z,30.50
2019-03-29T19:38:12.081Z,26.73
2019-03-29T19:43:08.126Z,23.70
2019-03-29T19:48:04.051Z,23.33
2019-03-29T19:52:59.964Z,22.10
2019-03-29T19:57:56.056Z,25.60
2019-03-29T20:02:52.157Z,23.17
2019-03-29T20:07:48.806Z,30.57
2019-03-29T20:12:44.795Z,25.20
2019-03-29T20:17:41.007Z,32.03
2019-03-29T20:22:36.979Z,52.03
2019-03-29T20:27:32.910Z,33.57
2019-03-29T20:32:28.850Z,35.87
2019-03-29T20:37:24.759Z,28.30
2019-03-29T20:42:21.147Z,27.03
2019-03-29T20:47:17.198Z,28.10
2019-03-29T20:52:13.199Z,30.47
2019-03-29T20:57:09.190Z,30.63
2019-03-29T21:02:05.135Z,26.70
2019-03-29T21:07:01.118Z,33.20
2019-03-29T21:11:57.027Z,35.37
2019-03-29T21:16:52.949Z,32.23
2019-03-29T21:21:49.021Z,28.43
2019-03-29T21:26:44.932Z,31.77
2019-03-29T21:31:40.841Z,31.20
2019-03-29T21:36:38.994Z,30.63
2019-03-29T21:41:34.918Z,33.80
2019-03-29T21:46:30.829Z,31.93
2019-03-29T21:51:26.742Z,27.83
2019-03-29T21:56:22.742Z,31.97
2019-03-29T22:01:18.654Z,28.40
2019-03-29T22:06:14.559Z,36.57
2019-03-29T22:11:10.519Z,37.60
2019-03-29T22:16:06.543Z,36.07
2019-03-29T22:21:02.596Z,32.50
2019-03-29T22:25:58.517Z,26.43
2019-03-29T22:30:54.427Z,26.70
2019-03-29T22:35:50.345Z,25.17
2019-03-29T22:40:46.259Z,26.03
2019-03-29T22:45:42.167Z,27.27
2019-03-29T22:50:38.091Z,27.20
2019-03-29T22:55:34.027Z,24.13
2019-03-29T23:00:40.434Z,31.87
2019-03-29T23:05:36.432Z,24.23
2019-03-29T23:10:32.578Z,19.00
2019-03-29T23:15:28.500Z,22.67
2019-03-29T23:20:24.410Z,23.80
2019-03-29T23:25:20.337Z,26.33
2019-03-29T23:30:16.742Z,33.90
2019-03-29T23:35:12.656Z,24.87
2019-03-29T23:40:08.765Z,29.90
2019-03-29T23:45:05.881Z,28.47
2019-03-29T23:50:02.998Z,28.47
2019-03-29T23:54:59.080Z,24.27
2019-03-29T23:59:55.000Z,26.10
